Latest Weather Observations for Archerfield

IDQ60801

Issued at 7:02 am EST Thursday 18 December 2014 (issued every 30 minutes, with the page automatically refreshed every 10 minutes)

About weather observations | Map of weather stations | Latest weather observations for QLD | Other Formats
Station Details ID: 040211 Name: ARCHERFIELD AIRPORT Lat: -27.57 Lon: 153.01 Height: 12.5 m
Data from the previous 72 hours. | See also: Recent months at Archerfield
Date/Time
EST
Temp
°C
App
Temp
°C
Dew
Point
Rel
Hum
%
Delta-T
°C
Wind Press
QNH
hPa
Press
MSL
hPa
Rain
since 9 am
mm
Dir
 
Spd
km/h
Gust
km/h
Spd
kts
Gust
kts
18/07:00am 25.3 27.6 22.0 82 2.2 NE 13 17 7 9 1011.3 1011.2 2.0
18/06:30am 25.5 28.8 22.6 84 2.0 NNE 9 13 5 7 1010.9 1010.8 2.0
18/06:00am 24.5 27.7 22.4 88 1.4 NNE 9 13 5 7 1010.5 1010.4 2.0
18/05:30am 23.6 27.0 22.0 91 1.1 NNE 7 9 4 5 1010.3 1010.2 2.0
18/05:00am 23.7 26.4 22.1 91 1.1 ENE 11 17 6 9 1009.7 1009.6 2.0
18/04:30am 23.7 25.6 22.0 90 1.1 WSW 15 24 8 13 1008.6 1008.5 2.0
18/04:00am 23.9 26.5 22.7 93 0.8 SSW 13 17 7 9 1008.2 1008.1 2.0
18/03:30am 24.4 28.0 23.0 92 0.9 S 9 13 5 7 1008.5 1008.4 2.0
18/03:00am 24.5 29.3 22.9 91 1.1 W 2 6 1 3 1009.0 1008.9 2.0
18/02:30am 25.0 29.5 22.9 88 1.4 SSW 4 7 2 4 1009.2 1009.1 2.0
18/02:00am 25.0 28.9 22.9 88 1.4 NE 7 9 4 5 1009.7 1009.6 1.8
18/01:30am 25.2 28.2 22.7 86 1.7 SSW 11 20 6 11 1009.7 1009.6 1.8
18/01:00am 25.7 27.4 24.1 91 1.1 SSW 22 26 12 14 1010.0 1009.9 1.4
18/12:30am 25.9 29.6 23.9 89 1.4 SSW 11 17 6 9 1008.9 1008.8 0.6
18/12:00am 26.4 29.7 23.9 86 1.7 SSW 13 17 7 9 1008.4 1008.3 0.6
 
Date/Time
EST
Temp
°C
App
Temp
°C
Dew
Point
Rel
Hum
%
Delta-T
°C
Wind Press
QNH
hPa
Press
MSL
hPa
Rain
since 9 am
mm
Dir
 
Spd
km/h
Gust
km/h
Spd
kts
Gust
kts
17/11:30pm 26.6 30.0 24.1 86 1.7 SE 13 17 7 9 1007.4 1007.3 0.6
17/11:00pm 26.5 29.0 23.8 85 1.9 SSE 17 28 9 15 1007.2 1007.1 0.6
17/10:30pm 26.6 29.7 23.5 83 2.1 NE 13 20 7 11 1007.0 1006.9 0.4
17/10:00pm 26.8 32.2 23.9 84 2.0 ENE 2 9 1 5 1007.3 1007.2 0.0
17/09:30pm 26.6 30.4 23.5 83 2.1 NNE 9 15 5 8 1006.8 1006.7 0.0
17/09:00pm 27.1 31.0 23.6 81 2.4 ENE 9 13 5 7 1006.5 1006.4 0.0
17/08:30pm 26.9 29.6 23.4 81 2.4 NE 15 19 8 10 1005.8 1005.7 0.0
17/08:00pm 27.5 30.2 23.5 79 2.7 ENE 15 20 8 11 1005.6 1005.5 0.0
17/07:30pm 27.5 30.5 23.3 78 2.9 NNE 13 19 7 10 1005.3 1005.2 0.0
17/07:00pm 28.2 30.2 22.9 73 3.6 NE 17 22 9 12 1004.8 1004.7 0.0
17/06:30pm 28.7 30.2 22.7 70 4.1 NE 19 24 10 13 1004.4 1004.3 0.0
17/06:00pm 29.7 30.6 22.7 66 4.8 NNE 22 28 12 15 1004.0 1003.9 0.0
17/05:30pm 30.3 31.4 23.0 65 5.0 NNE 22 30 12 16 1003.6 1003.5 0.0
17/05:00pm 31.2 31.3 22.5 60 6.0 NNE 26 32 14 17 1003.2 1003.1 0.0
17/04:30pm 32.2 32.4 22.0 55 6.9 NNE 24 30 13 16 1003.0 1002.9 0.0
17/04:00pm 32.8 31.6 21.6 51 7.6 NNE 30 37 16 20 1003.0 1002.9 0.0
17/03:30pm 34.2 32.3 19.4 41 9.8 NNE 28 33 15 18 1002.8 1002.7 0.0
17/03:00pm 34.7 32.9 19.5 40 10.1 NNE 28 33 15 18 1002.9 1002.8 0.0
17/02:30pm 35.7 35.2 20.8 42 10.1 NNE 24 32 13 17 1003.2 1003.1 0.0
17/02:00pm 35.6 34.1 19.5 38 10.7 NNE 26 33 14 18 1003.5 1003.4 0.0
17/01:30pm 35.6 37.4 20.3 40 10.3 NNE 11 20 6 11 1003.9 1003.8 0.0
17/01:00pm 36.3 36.2 17.0 32 12.4 WNW 13 22 7 12 1004.3 1004.2 0.0
17/12:30pm 36.1 35.4 18.2 34 11.7 W 19 26 10 14 1004.6 1004.5 0.0
17/12:00pm 35.8 35.6 18.4 35 11.4 W 17 28 9 15 1004.9 1004.8 0.0
17/11:30am 34.5 37.3 20.8 44 9.2 WNW 7 13 4 7 1005.3 1005.2 0.0
17/11:00am 33.1 35.1 19.9 45 8.8 SW 9 15 5 8 1005.9 1005.8 0.0
17/10:30am 32.3 35.6 21.8 54 7.1 NNW 7 11 4 6 1006.2 1006.1 0.0
17/10:00am 30.8 32.8 20.7 55 6.7 N 11 17 6 9 1006.4 1006.3 0.0
17/09:30am 30.4 31.8 20.3 54 6.7 NNW 13 17 7 9 1006.7 1006.6 0.0
17/09:00am 29.4 31.6 20.5 58 5.9 W 9 13 5 7 1006.8 1006.7 0.0
17/08:30am 28.5 31.9 22.0 68 4.4 WNW 7 11 4 6 1007.0 1006.9 0.0
17/08:00am 27.2 30.1 21.7 72 3.7 S 9 13 5 7 1007.1 1007.0 0.0
17/07:30am 26.4 29.7 21.4 74 3.3 SW 6 9 3 5 1007.1 1007.0 0.0
17/07:00am 26.1 30.2 22.2 79 2.6 S 4 9 2 5 1006.9 1006.8 0.0
17/06:30am 25.5 29.7 21.8 80 2.5 SSW 2 7 1 4 1006.8 1006.7 0.0
17/06:00am 24.4 27.6 21.3 83 2.0 SSW 6 7 3 4 1006.6 1006.5 0.0
17/05:53am 24.1 27.3 21.2 84 1.9 S 6 6 3 3 1006.5 1006.4 0.0
17/05:30am 23.8 28.2 21.3 86 1.6 CALM 0 6 0 3 1006.3 1006.2 0.0
17/05:00am 23.4 26.3 21.1 87 1.5 SSE 7 9 4 5 1006.0 1005.9 0.0
17/04:30am 23.6 26.7 21.5 88 1.4 ESE 7 9 4 5 1005.3 1005.2 0.0
17/04:06am 23.4 26.6 21.3 88 1.4 E 6 9 3 5 1005.4 1005.3 0.0
17/04:00am 23.3 26.3 21.2 88 1.4 ENE 7 9 4 5 1005.2 1005.1 0.0
17/03:30am 23.4 26.4 21.3 88 1.4 ESE 7 11 4 6 1005.1 1005.0 0.0
17/03:00am 23.1 26.4 20.8 87 1.5 ENE 4 9 2 5 1004.8 1004.7 0.0
17/02:30am 23.4 25.8 20.9 86 1.6 NE 9 15 5 8 1005.3 1005.2 0.0
17/02:00am 23.5 25.4 20.6 84 1.9 ENE 11 15 6 8 1005.4 1005.3 0.0
17/01:30am 23.1 25.3 20.4 85 1.8 NNE 9 11 5 6 1006.1 1006.0 0.0
17/01:00am 23.7 26.0 20.6 83 2.0 E 9 13 5 7 1006.3 1006.2 0.0
17/12:30am 23.5 26.3 20.4 83 2.0 S 6 9 3 5 1007.1 1007.0 0.0
17/12:00am 23.7 25.8 20.2 81 2.3 S 9 11 5 6 1007.1 1007.0 0.0
 
Date/Time
EST
Temp
°C
App
Temp
°C
Dew
Point
Rel
Hum
%
Delta-T
°C
Wind Press
QNH
hPa
Press
MSL
hPa
Rain
since 9 am
mm
Dir
 
Spd
km/h
Gust
km/h
Spd
kts
Gust
kts
16/11:30pm 23.9 27.0 20.2 80 2.4 ENE 4 9 2 5 1007.9 1007.8 0.0
16/11:00pm 23.8 26.0 20.3 81 2.3 SSE 9 13 5 7 1008.0 1007.9 0.0
16/10:30pm 24.1 25.9 20.4 80 2.4 S 11 15 6 8 1008.5 1008.4 0.0
16/10:00pm 24.0 25.9 20.5 81 2.3 WSW 11 19 6 10 1008.7 1008.6 0.0
16/09:59pm 24.0 25.9 20.5 81 2.3 WSW 11 19 6 10 1008.8 1008.7 0.0
16/09:30pm 24.0 24.3 20.3 80 2.4 N 19 26 10 14 1006.8 1006.7 0.0
16/09:00pm 23.8 24.1 20.3 81 2.3 NNE 19 26 10 14 1005.9 1005.8 0.0
16/08:30pm 24.1 24.1 20.2 79 2.5 NNE 20 28 11 15 1006.1 1006.0 0.0
16/08:00pm 24.2 23.4 20.1 78 2.7 NNE 24 32 13 17 1006.1 1006.0 0.0
16/07:30pm 24.2 23.3 19.9 77 2.8 NNE 24 33 13 18 1006.0 1005.9 0.0
16/07:00pm 24.2 24.0 19.7 76 2.9 NNE 20 30 11 16 1005.9 1005.8 0.0
16/06:30pm 24.5 23.1 19.6 74 3.2 NNE 26 35 14 19 1005.6 1005.5 0.0
16/06:00pm 25.1 24.5 19.7 72 3.5 NNE 22 33 12 18 1005.4 1005.3 0.0
16/05:30pm 25.5 24.4 19.4 69 3.9 NNE 24 32 13 17 1005.2 1005.1 0.0
16/05:00pm 26.0 24.0 19.2 66 4.4 N 28 35 15 19 1005.0 1004.9 0.0
16/04:30pm 27.4 25.9 19.5 62 5.1 NNE 26 33 14 18 1004.6 1004.5 0.0
16/04:00pm 27.9 26.5 18.9 58 5.8 N 24 30 13 16 1004.8 1004.7 0.0
16/03:30pm 28.4 27.0 18.8 56 6.2 NNE 24 30 13 16 1005.2 1005.1 0.0
16/03:00pm 28.5 26.5 18.3 54 6.5 NNE 26 32 14 17 1005.5 1005.4 0.0
16/02:30pm 29.0 27.6 18.7 53 6.6 NNE 24 30 13 16 1005.9 1005.8 0.0
16/02:00pm 29.6 28.4 19.3 54 6.7 N 24 35 13 19 1006.5 1006.4 0.0
16/01:30pm 29.8 29.1 18.3 50 7.4 NNE 19 28 10 15 1006.5 1006.4 0.0
16/01:00pm 29.5 30.9 18.6 52 7.0 NNE 9 19 5 10 1007.0 1006.9 0.0
16/12:30pm 29.4 30.3 17.6 49 7.5 NNW 9 20 5 11 1007.6 1007.5 0.0
16/12:00pm 28.8 29.2 17.3 49 7.3 NW 11 19 6 10 1008.1 1008.0 0.0
16/11:30am 28.5 30.0 18.9 56 6.2 NW 9 19 5 10 1008.5 1008.4 0.0
16/11:00am 27.3 26.8 16.9 53 6.5 N 15 24 8 13 1009.0 1008.9 0.0
16/10:30am 27.1 28.3 17.3 55 6.1 SW 7 13 4 7 1009.4 1009.3 0.0
16/10:00am 26.3 27.0 17.1 57 5.7 NNW 9 19 5 10 1009.8 1009.7 0.0
16/09:30am 25.7 26.5 16.3 56 5.8 WNW 7 15 4 8 1010.5 1010.4 0.0
16/09:00am 25.3 25.7 15.3 54 6.0 NNW 7 17 4 9 1010.5 1010.4 0.0
16/08:30am 24.5 24.3 15.7 58 5.3 NNW 11 15 6 8 1010.8 1010.7 0.0
16/08:00am 24.7 26.6 16.7 61 4.9 SSE 2 9 1 5 1010.8 1010.7 0.0
16/07:30am 23.6 25.3 16.1 62 4.6 SSE 2 6 1 3 1011.2 1011.1 0.0
16/07:00am 22.0 23.7 16.1 69 3.6 SSW 2 7 1 4 1011.1 1011.0 0.0
16/06:30am 20.4 21.2 16.4 78 2.4 SSW 7 9 4 5 1011.1 1011.0 0.0
16/06:00am 20.1 22.4 16.7 81 2.1 CALM 0 0 0 0 1010.7 1010.6 0.0
16/05:30am 18.2 20.2 16.0 87 1.3 CALM 0 6 0 3 1010.5 1010.4 0.0
16/05:00am 17.2 17.4 15.7 91 0.9 SSW 9 11 5 6 1010.4 1010.3 0.0
16/04:30am 17.6 19.4 15.6 88 1.2 CALM 0 0 0 0 1010.1 1010.0 0.0
16/04:00am 18.2 20.2 16.0 87 1.3 CALM 0 0 0 0 1010.2 1010.1 0.0
16/03:30am 18.0 19.9 15.8 87 1.3 CALM 0 0 0 0 1010.2 1010.1 0.0
16/03:00am 18.0 19.8 15.6 86 1.4 CALM 0 0 0 0 1010.3 1010.2 0.0
16/02:30am 18.4 19.3 16.2 87 1.3 SSW 6 7 3 4 1010.2 1010.1 0.0
16/02:00am 19.4 21.6 16.4 83 1.8 CALM 0 0 0 0 1010.1 1010.0 0.0
16/01:30am 18.8 20.8 16.0 84 1.7 CALM 0 0 0 0 1010.3 1010.2 0.0
16/01:00am 19.0 20.7 15.3 79 2.2 CALM 0 0 0 0 1010.2 1010.1 0.0
16/12:30am 19.5 21.2 15.2 76 2.5 CALM 0 0 0 0 1010.6 1010.5 0.0
16/12:00am 20.2 22.0 15.4 74 2.8 CALM 0 0 0 0 1011.1 1011.0 0.0
 
Date/Time
EST
Temp
°C
App
Temp
°C
Dew
Point
Rel
Hum
%
Delta-T
°C
Wind Press
QNH
hPa
Press
MSL
hPa
Rain
since 9 am
mm
Dir
 
Spd
km/h
Gust
km/h
Spd
kts
Gust
kts
15/11:30pm 20.6 21.3 15.6 73 3.0 ENE 6 9 3 5 1011.1 1011.0 0.0
15/11:00pm 20.9 21.5 15.9 73 3.0 NE 7 13 4 7 1011.4 1011.3 0.0
15/10:30pm 21.0 21.1 15.5 71 3.3 NE 9 13 5 7 1011.7 1011.6 0.0
15/10:00pm 21.6 21.4 15.7 69 3.5 ENE 11 13 6 7 1011.9 1011.8 0.0
15/09:30pm 21.8 21.9 15.6 68 3.7 ENE 9 13 5 7 1011.8 1011.7 0.0
15/09:00pm 22.2 22.0 15.8 67 3.8 ENE 11 17 6 9 1011.6 1011.5 0.0
15/08:30pm 22.1 21.5 15.7 67 3.8 ENE 13 17 7 9 1011.2 1011.1 0.0
15/08:00pm 22.4 22.2 15.7 66 4.0 ENE 11 17 6 9 1011.0 1010.9 0.0
15/07:30pm 22.8 21.3 15.4 63 4.4 E 17 24 9 13 1010.9 1010.8 0.0
15/07:00pm 23.0 20.9 15.3 62 4.6 ENE 20 26 11 14 1010.7 1010.6 0.0
15/06:30pm 23.6 21.2 15.4 60 4.9 E 22 32 12 17 1010.4 1010.3 0.0
15/06:00pm 24.5 22.1 15.4 57 5.5 E 22 28 12 15 1010.2 1010.1 0.0
15/05:30pm 25.2 23.1 15.2 54 6.0 ENE 20 28 11 15 1009.8 1009.7 0.0
15/05:00pm 26.1 24.2 15.8 53 6.3 ENE 20 28 11 15 1009.3 1009.2 0.0
15/04:30pm 26.5 24.4 15.2 49 6.8 ENE 20 30 11 16 1008.9 1008.8 0.0
15/04:00pm 27.0 24.6 15.4 49 7.1 NE 22 32 12 17 1008.6 1008.5 0.0
15/03:30pm 27.4 25.1 15.7 48 7.2 NE 22 30 12 16 1008.4 1008.3 0.0
15/03:00pm 28.1 24.8 16.1 48 7.4 NE 28 39 15 21 1008.2 1008.1 0.0
15/02:30pm 28.1 26.1 16.4 49 7.3 NE 22 33 12 18 1008.5 1008.4 0.0
15/02:00pm 29.5 28.2 12.4 35 10.0 WNW 11 19 6 10 1008.6 1008.5 0.0
15/01:30pm 29.6 29.5 13.8 38 9.5 S 7 20 4 11 1008.7 1008.6 0.0
15/01:00pm 28.8 25.8 12.7 37 9.5 S 20 28 11 15 1009.1 1009.0 0.0
15/12:30pm 28.3 26.8 13.0 39 9.0 SSE 13 28 7 15 1009.4 1009.3 0.0
15/12:00pm 27.7 25.5 12.1 38 9.0 SSE 15 30 8 16 1009.7 1009.6 0.0
15/11:30am 26.8 26.1 15.5 50 6.9 W 13 19 7 10 1010.0 1009.9 0.0
15/11:00am 27.3 27.8 15.0 47 7.5 SW 6 11 3 6 1010.5 1010.4 0.0
15/10:30am 26.1 25.6 14.9 50 6.7 ESE 11 24 6 13 1010.9 1010.8 0.0
15/10:00am 25.4 24.5 13.6 48 6.9 SSW 11 19 6 10 1011.2 1011.1 0.0
15/09:30am 25.1 23.8 13.6 49 6.7 S 13 19 7 10 1011.3 1011.2 0.0
15/09:00am 24.4 22.6 13.3 50 6.5 S 15 22 8 12 1011.5 1011.4 0.0
15/08:30am 24.0 22.9 13.2 50 6.3 S 11 20 6 11 1011.5 1011.4 0.0
15/08:00am 22.8 22.6 14.6 60 4.8 SSW 9 13 5 7 1011.6 1011.5 0.0
15/07:30am 22.0 22.0 15.1 65 4.1 SSW 9 17 5 9 1011.6 1011.5 0.0

Other Formats:

Comma delimited format used in spreadsheet applications
http://www.bom.gov.au/fwo/IDQ60801/IDQ60801.94575.axf

JavaScript Object Notation format (JSON) in row-major order
http://www.bom.gov.au/fwo/IDQ60801/IDQ60801.94575.json